createdAt,value
2018-04-10T07:08:14.754Z,20.51
2018-04-10T07:13:17.253Z,21.25
2018-04-10T07:14:16.954Z,21.79
2018-04-10T07:22:52.548Z,23.25
2018-04-10T07:23:52.553Z,23.23
2018-04-10T07:24:52.561Z,23.12
2018-04-10T07:25:52.571Z,22.88
2018-04-10T07:26:52.576Z,23.09
2018-04-10T07:27:52.584Z,23.36
2018-04-10T07:28:52.594Z,23.79
2018-04-10T07:29:52.599Z,24.02
2018-04-10T07:30:52.610Z,23.97
2018-04-10T07:31:52.617Z,23.63
2018-04-10T07:35:21.162Z,23.25
2018-04-10T07:38:50.645Z,22.64
2018-04-10T08:39:11.312Z,20.52
2018-04-10T08:40:11.065Z,20.38
2018-04-10T16:02:20.430Z,22.83
2018-04-10T16:03:20.433Z,22.85
2018-04-10T16:45:38.552Z,22.28
2018-04-10T16:46:38.557Z,22.24
2018-04-10T16:47:38.561Z,22.37
2018-04-10T16:55:10.935Z,22.17
2018-04-10T16:56:10.937Z,22.17
2018-04-10T16:57:10.942Z,22.20
2018-04-10T16:58:10.948Z,22.22
2018-04-10T16:59:10.952Z,22.20
2018-04-10T17:00:10.955Z,22.21
2018-04-10T17:07:03.700Z,22.07
2018-04-10T17:08:03.254Z,22.12
2018-04-10T17:09:03.256Z,22.06
2018-04-10T17:10:03.261Z,22.05
2018-04-10T17:13:28.974Z,22.03
2018-04-10T17:14:28.979Z,22.02
2018-04-10T17:15:28.983Z,22.00
2018-04-10T18:15:50.073Z,21.21
2018-04-10T18:16:50.076Z,21.17
2018-04-10T18:17:50.081Z,21.16
2018-04-10T18:18:50.085Z,21.16
2018-04-10T18:19:50.089Z,21.06
2018-04-10T18:20:50.092Z,21.10
2018-04-10T18:21:50.095Z,21.06
2018-04-10T18:42:38.725Z,20.73
2018-04-10T18:43:38.728Z,20.73
2018-04-10T18:44:38.924Z,20.74
2018-04-10T19:32:56.765Z,20.17
2018-04-10T19:33:56.767Z,20.16
2018-04-10T19:34:56.771Z,20.10
2018-04-10T23:09:23.404Z,16.46
2018-04-10T23:10:23.406Z,16.42
2018-04-10T23:11:23.410Z,16.41
2018-04-10T23:12:23.445Z,16.42
2018-04-10T23:13:23.415Z,16.45
2018-04-10T23:14:23.417Z,16.48
2018-04-10T23:15:23.420Z,16.39
2018-04-10T23:16:23.427Z,16.38
2018-04-10T23:17:23.430Z,16.38
2018-04-10T23:18:23.427Z,16.42
2018-04-10T23:19:23.435Z,16.24
2018-04-10T23:20:23.432Z,16.28
2018-04-10T23:21:23.439Z,16.27
2018-04-10T23:22:23.434Z,16.28
2018-04-10T23:23:23.438Z,16.23
2018-04-10T23:24:23.440Z,16.15
2018-04-10T23:25:23.443Z,16.21
2018-04-10T23:26:23.442Z,16.09
2018-04-10T23:27:23.444Z,16.20
2018-04-10T23:28:23.447Z,16.17
2018-04-10T23:29:23.449Z,16.09
2018-04-10T23:30:23.449Z,16.14
2018-04-10T23:31:23.452Z,15.96
2018-04-10T23:32:23.454Z,16.00
2018-04-10T23:33:23.455Z,15.94
2018-04-10T23:34:23.456Z,16.02
2018-04-10T23:35:23.457Z,16.00
2018-04-10T23:36:23.460Z,15.96
2018-04-10T23:37:23.472Z,15.89
2018-04-10T23:38:23.460Z,15.86
2018-04-10T23:39:23.463Z,15.90
2018-04-10T23:40:23.465Z,15.76
2018-04-10T23:41:23.467Z,15.82
2018-04-10T23:42:23.468Z,15.87
2018-04-10T23:43:23.468Z,15.82
2018-04-10T23:44:23.470Z,15.83
2018-04-10T23:45:23.470Z,15.72
2018-04-10T23:46:23.473Z,15.69
2018-04-10T23:47:23.473Z,15.68
2018-04-10T23:48:23.475Z,15.67
2018-04-10T23:49:23.475Z,15.64
2018-04-10T23:50:23.476Z,15.67
2018-04-10T23:51:23.480Z,15.65
2018-04-10T23:52:23.478Z,15.65
2018-04-10T23:53:23.480Z,15.75
2018-04-10T23:54:23.478Z,15.71
2018-04-10T23:55:23.528Z,15.74
2018-04-10T23:56:23.479Z,15.65
2018-04-10T23:57:23.732Z,15.74
2018-04-10T23:58:23.477Z,15.82
2018-04-10T23:59:23.478Z,15.78
